createdAt,value
2018-06-16T00:01:35.026Z,13.33
2018-06-16T00:04:07.049Z,13.30
2018-06-16T00:06:39.108Z,13.38
2018-06-16T00:09:11.177Z,13.30
2018-06-16T00:11:43.261Z,13.21
2018-06-16T00:14:15.347Z,13.23
2018-06-16T00:16:47.463Z,13.28
2018-06-16T00:19:19.532Z,13.14
2018-06-16T00:21:51.679Z,13.23
2018-06-16T00:24:23.719Z,13.20
2018-06-16T00:26:55.768Z,13.16
2018-06-16T00:29:27.812Z,13.12
2018-06-16T00:31:59.905Z,12.99
2018-06-16T00:34:31.986Z,13.06
2018-06-16T00:37:04.045Z,13.14
2018-06-16T00:39:36.113Z,13.16
2018-06-16T00:42:09.249Z,13.22
2018-06-16T00:44:41.328Z,13.22
2018-06-16T00:47:13.602Z,13.24
2018-06-16T00:49:45.653Z,13.17
2018-06-16T00:52:17.819Z,13.05
2018-06-16T00:54:49.904Z,12.87
2018-06-16T00:57:33.724Z,12.71
2018-06-16T01:00:05.798Z,12.62
2018-06-16T01:02:38.009Z,12.72
2018-06-16T01:05:10.290Z,12.70
2018-06-16T01:07:42.385Z,12.67
2018-06-16T01:10:14.419Z,12.70
2018-06-16T01:12:46.476Z,12.66
2018-06-16T01:15:18.543Z,12.60
2018-06-16T01:17:50.621Z,12.49
2018-06-16T01:20:22.671Z,12.48
2018-06-16T01:22:54.752Z,12.44
2018-06-16T01:25:26.887Z,12.49
2018-06-16T01:27:58.939Z,12.42
2018-06-16T01:30:31.024Z,12.35
2018-06-16T01:33:03.179Z,12.29
2018-06-16T01:35:35.279Z,12.28
2018-06-16T01:38:07.326Z,12.32
2018-06-16T01:40:39.360Z,12.44
2018-06-16T01:43:11.407Z,12.44
2018-06-16T01:45:43.459Z,12.45
2018-06-16T01:48:15.579Z,12.47
2018-06-16T01:50:47.641Z,12.56
2018-06-16T01:53:19.701Z,12.47
2018-06-16T01:55:51.783Z,12.51
2018-06-16T01:58:23.875Z,12.47
2018-06-16T02:00:55.906Z,12.50
2018-06-16T02:03:27.966Z,12.49
2018-06-16T02:06:00.029Z,12.44
2018-06-16T02:08:32.096Z,12.31
2018-06-16T02:11:04.136Z,12.26
2018-06-16T02:13:36.285Z,12.13
2018-06-16T02:16:08.326Z,12.06
2018-06-16T02:18:40.378Z,11.96
2018-06-16T02:21:12.407Z,11.97
2018-06-16T02:23:44.568Z,11.90
2018-06-16T02:26:16.583Z,11.90
2018-06-16T02:28:48.612Z,11.94
2018-06-16T02:31:20.730Z,11.91
2018-06-16T02:33:52.890Z,11.83
2018-06-16T02:36:24.966Z,11.89
2018-06-16T02:38:57.024Z,11.84
2018-06-16T02:41:29.065Z,11.85
2018-06-16T02:44:01.129Z,11.74
2018-06-16T02:46:33.296Z,11.73
2018-06-16T02:49:05.338Z,11.74
2018-06-16T02:51:37.434Z,11.61
2018-06-16T02:54:09.503Z,11.56
2018-06-16T02:56:41.572Z,11.58
2018-06-16T02:59:13.623Z,11.62
2018-06-16T03:01:45.764Z,11.52
2018-06-16T03:04:17.848Z,11.57
2018-06-16T03:06:49.882Z,11.68
2018-06-16T03:09:21.968Z,11.79
2018-06-16T03:11:54.033Z,11.82
2018-06-16T03:14:26.088Z,11.83
2018-06-16T03:16:58.147Z,11.74
2018-06-16T03:19:30.252Z,11.76
2018-06-16T03:22:02.310Z,11.77
2018-06-16T03:24:34.390Z,11.76
2018-06-16T03:27:06.461Z,11.76
2018-06-16T03:29:38.508Z,11.71
2018-06-16T03:32:10.675Z,11.82
2018-06-16T03:34:42.719Z,11.92
2018-06-16T03:37:14.828Z,11.94
2018-06-16T03:39:46.903Z,11.98
2018-06-16T03:42:19.032Z,12.05
2018-06-16T03:44:51.101Z,11.97
2018-06-16T03:47:23.164Z,12.09
2018-06-16T03:49:55.277Z,12.13
2018-06-16T03:52:27.359Z,12.20
2018-06-16T03:54:59.458Z,12.26
2018-06-16T03:57:31.563Z,12.26
2018-06-16T04:00:04.288Z,12.34
2018-06-16T04:02:36.339Z,12.47
2018-06-16T04:05:08.372Z,12.60
2018-06-16T04:07:40.410Z,12.68
2018-06-16T04:10:12.438Z,12.83
2018-06-16T04:12:44.505Z,12.90
2018-06-16T04:15:16.573Z,13.08
2018-06-16T04:17:48.626Z,13.23
2018-06-16T04:20:20.811Z,13.47
2018-06-16T04:22:52.880Z,14.02
2018-06-16T04:25:24.979Z,15.02
2018-06-16T04:27:57.032Z,15.79
2018-06-16T04:30:29.103Z,16.86
2018-06-16T04:33:01.184Z,17.88
2018-06-16T04:35:33.258Z,18.02
2018-06-16T04:38:05.305Z,19.12
2018-06-16T04:40:37.369Z,19.49
2018-06-16T04:43:09.441Z,20.33
2018-06-16T04:48:20.219Z,20.64
2018-06-16T04:50:52.264Z,21.85
2018-06-16T04:53:24.332Z,22.25
2018-06-16T04:55:56.388Z,22.32
2018-06-16T04:58:28.921Z,21.77
2018-06-16T05:01:01.029Z,23.00
2018-06-16T05:03:33.500Z,22.69
2018-06-16T05:06:05.568Z,23.05
2018-06-16T05:08:37.683Z,22.85
2018-06-16T05:11:09.757Z,23.33
2018-06-16T05:13:41.888Z,24.40
2018-06-16T05:16:14.001Z,23.99
2018-06-16T05:18:46.081Z,23.84
2018-06-16T05:21:18.187Z,24.03
2018-06-16T05:23:50.258Z,24.08
2018-06-16T05:26:22.335Z,24.47
2018-06-16T05:28:54.499Z,23.84
2018-06-16T05:31:26.611Z,24.83
2018-06-16T05:33:58.675Z,25.38
2018-06-16T05:36:30.773Z,25.10
2018-06-16T05:39:04.501Z,24.62
2018-06-16T05:41:36.631Z,25.14
2018-06-16T05:44:08.759Z,25.19
2018-06-16T05:46:40.850Z,24.98
2018-06-16T05:49:12.920Z,24.32
2018-06-16T05:51:45.026Z,24.09
2018-06-16T05:54:17.093Z,24.46
2018-06-16T05:56:49.491Z,24.08
2018-06-16T05:59:21.548Z,24.27
2018-06-16T06:01:53.642Z,24.73
2018-06-16T06:04:25.801Z,25.01
2018-06-16T06:06:57.842Z,25.97
2018-06-16T06:09:29.900Z,27.32
2018-06-16T06:12:01.946Z,27.47
2018-06-16T06:14:34.027Z,28.06
2018-06-16T06:17:06.089Z,27.91
2018-06-16T06:19:38.374Z,28.24
2018-06-16T06:22:10.454Z,27.74
2018-06-16T06:24:42.567Z,28.03
2018-06-16T06:27:14.737Z,29.49
2018-06-16T06:29:46.861Z,29.73
2018-06-16T06:32:18.963Z,29.43
2018-06-16T06:34:51.123Z,29.01
2018-06-16T06:37:23.230Z,29.59
2018-06-16T06:39:55.265Z,30.70
2018-06-16T06:42:27.468Z,30.60
2018-06-16T06:44:59.499Z,29.58
2018-06-16T06:47:31.689Z,30.51
2018-06-16T06:50:03.762Z,29.76
2018-06-16T06:52:35.883Z,30.02
2018-06-16T06:55:08.024Z,30.12
2018-06-16T06:57:40.184Z,30.34
2018-06-16T07:00:12.325Z,30.87
2018-06-16T07:02:44.407Z,31.32
2018-06-16T07:05:16.582Z,31.81
2018-06-16T07:07:48.708Z,31.78
2018-06-16T07:10:20.741Z,32.10
2018-06-16T07:12:52.787Z,32.44
2018-06-16T07:15:24.951Z,31.62
2018-06-16T07:17:57.145Z,30.94
2018-06-16T07:20:29.176Z,30.56
2018-06-16T07:23:01.409Z,30.20
2018-06-16T07:25:33.604Z,30.04
2018-06-16T07:28:05.825Z,30.51
2018-06-16T07:30:37.943Z,30.84
2018-06-16T07:33:10.020Z,31.47
2018-06-16T07:35:42.242Z,31.55
2018-06-16T07:38:14.343Z,31.45
2018-06-16T07:40:46.404Z,31.94
2018-06-16T07:43:18.565Z,32.07
2018-06-16T07:45:50.696Z,32.49
2018-06-16T07:48:22.845Z,32.86
2018-06-16T07:50:55.040Z,31.58
2018-06-16T07:53:27.128Z,32.16
2018-06-16T07:55:59.182Z,32.63
2018-06-16T07:58:31.234Z,33.20
2018-06-16T08:01:03.401Z,32.22
2018-06-16T08:03:35.514Z,31.63
2018-06-16T08:06:07.652Z,32.08
2018-06-16T08:08:39.754Z,33.14
2018-06-16T08:11:11.864Z,32.15
2018-06-16T08:13:44.451Z,31.84
2018-06-16T08:16:16.635Z,31.28
2018-06-16T08:18:48.783Z,31.20
2018-06-16T08:21:20.848Z,30.54
2018-06-16T08:23:53.001Z,31.32
2018-06-16T08:26:25.134Z,31.46
2018-06-16T08:28:57.308Z,32.11
2018-06-16T08:31:29.371Z,32.68
2018-06-16T08:34:01.464Z,31.69
2018-06-16T08:36:33.640Z,31.82
2018-06-16T08:39:07.545Z,32.41
2018-06-16T08:41:40.033Z,33.11
2018-06-16T08:44:12.225Z,32.57
2018-06-16T08:46:44.307Z,32.56
2018-06-16T08:49:16.356Z,32.26
2018-06-16T08:51:48.459Z,32.18
2018-06-16T08:54:20.525Z,32.71
2018-06-16T08:56:52.646Z,32.39
2018-06-16T08:59:24.747Z,32.47
2018-06-16T09:01:57.640Z,33.01
2018-06-16T09:04:29.787Z,32.61
2018-06-16T09:07:01.867Z,31.90
2018-06-16T09:09:33.958Z,32.50
2018-06-16T09:12:06.071Z,31.88
2018-06-16T09:14:38.171Z,31.48
2018-06-16T09:17:10.243Z,32.04
2018-06-16T09:19:42.297Z,32.94
2018-06-16T09:22:14.388Z,33.13
2018-06-16T09:24:46.471Z,32.50
2018-06-16T09:27:18.538Z,32.20
2018-06-16T09:29:50.635Z,33.04
2018-06-16T09:32:22.712Z,33.05
2018-06-16T09:34:54.783Z,32.77
2018-06-16T09:37:26.885Z,33.32
2018-06-16T09:39:58.966Z,31.77
2018-06-16T09:42:31.128Z,32.75
2018-06-16T09:45:03.200Z,33.64
2018-06-16T09:47:35.267Z,32.53
2018-06-16T09:50:07.337Z,32.56
2018-06-16T09:52:39.638Z,32.26
2018-06-16T09:55:11.689Z,32.59
2018-06-16T09:57:43.760Z,31.63
2018-06-16T10:00:21.655Z,32.54
2018-06-16T10:02:53.753Z,32.15
2018-06-16T10:05:25.841Z,31.56
2018-06-16T10:07:58.609Z,31.85
2018-06-16T10:10:30.712Z,32.74
2018-06-16T10:13:02.776Z,31.79
2018-06-16T10:15:34.823Z,31.98
2018-06-16T10:18:07.328Z,31.46
2018-06-16T10:20:39.381Z,30.50
2018-06-16T10:23:11.483Z,31.04
2018-06-16T10:25:43.644Z,32.03
2018-06-16T10:28:15.719Z,32.37
2018-06-16T10:30:47.800Z,32.87
2018-06-16T10:33:19.893Z,32.45
2018-06-16T10:35:51.930Z,32.81
2018-06-16T10:38:24.011Z,32.11
2018-06-16T10:40:57.112Z,32.38
2018-06-16T10:43:29.205Z,32.62
2018-06-16T10:46:01.284Z,32.94
2018-06-16T10:48:33.366Z,31.47
2018-06-16T10:51:10.758Z,31.65
2018-06-16T10:53:42.812Z,32.56
2018-06-16T10:56:14.889Z,32.29
2018-06-16T10:58:46.971Z,31.94
2018-06-16T11:01:19.100Z,31.78
2018-06-16T11:03:51.225Z,32.28
2018-06-16T11:06:23.560Z,31.93
2018-06-16T11:08:55.736Z,31.78
2018-06-16T11:11:27.844Z,32.00
2018-06-16T11:13:59.927Z,31.61
2018-06-16T11:16:32.072Z,31.34
2018-06-16T11:19:04.711Z,32.64
2018-06-16T11:21:36.968Z,32.73
2018-06-16T11:24:09.079Z,31.30
2018-06-16T11:26:41.185Z,30.15
2018-06-16T11:29:13.256Z,29.87
2018-06-16T11:31:45.329Z,30.02
2018-06-16T11:34:17.415Z,30.47
2018-06-16T11:36:49.467Z,31.38
2018-06-16T11:39:21.575Z,32.60
2018-06-16T11:41:53.656Z,32.49
2018-06-16T11:44:25.763Z,32.41
2018-06-16T11:46:57.891Z,32.54
2018-06-16T11:49:29.952Z,32.60
2018-06-16T11:52:02.063Z,32.61
2018-06-16T11:54:34.148Z,32.53
2018-06-16T11:57:06.238Z,31.68
2018-06-16T11:59:38.332Z,32.27
2018-06-16T12:02:10.444Z,33.11
2018-06-16T12:04:42.498Z,31.93
2018-06-16T12:07:14.564Z,32.75
2018-06-16T12:09:46.679Z,33.09
2018-06-16T12:12:25.639Z,33.68
2018-06-16T12:14:57.747Z,33.78
2018-06-16T12:17:29.776Z,33.05
2018-06-16T12:20:01.874Z,33.15
2018-06-16T12:22:33.939Z,32.75
2018-06-16T12:25:06.004Z,33.29
2018-06-16T12:27:38.141Z,32.78
2018-06-16T12:30:10.346Z,32.64
2018-06-16T12:32:42.433Z,33.28
2018-06-16T12:35:14.499Z,34.45
2018-06-16T12:37:46.630Z,34.84
2018-06-16T12:40:18.749Z,34.92
2018-06-16T12:42:50.801Z,34.80
2018-06-16T12:45:22.885Z,35.12
2018-06-16T12:47:54.969Z,33.91
2018-06-16T12:50:27.047Z,32.85
2018-06-16T12:52:59.141Z,33.36
2018-06-16T12:55:31.247Z,33.97
2018-06-16T12:58:03.299Z,33.86
2018-06-16T13:00:35.409Z,34.15
2018-06-16T13:03:07.482Z,35.57
2018-06-16T13:05:39.555Z,34.75
2018-06-16T13:08:11.663Z,36.37
2018-06-16T13:10:43.739Z,35.69
2018-06-16T13:13:15.833Z,34.09
2018-06-16T13:15:47.888Z,34.78
2018-06-16T13:18:20.055Z,36.39
2018-06-16T13:20:52.089Z,36.77
2018-06-16T13:23:24.160Z,36.26
2018-06-16T13:25:56.223Z,35.77
2018-06-16T13:28:28.343Z,36.01
2018-06-16T13:31:00.474Z,35.18
2018-06-16T13:33:32.595Z,34.29
2018-06-16T13:36:04.697Z,34.34
2018-06-16T13:38:36.754Z,35.11
2018-06-16T13:41:08.879Z,34.46
2018-06-16T13:43:40.955Z,34.70
2018-06-16T13:46:13.320Z,34.46
2018-06-16T13:48:45.387Z,34.61
2018-06-16T13:51:17.485Z,34.23
2018-06-16T13:53:49.522Z,33.19
2018-06-16T13:56:21.597Z,33.22
2018-06-16T13:58:53.657Z,35.29
2018-06-16T14:01:25.717Z,33.98
2018-06-16T14:03:57.813Z,33.54
2018-06-16T14:06:29.961Z,33.08
2018-06-16T14:09:02.053Z,34.74
2018-06-16T14:11:34.147Z,35.36
2018-06-16T14:14:06.271Z,34.92
2018-06-16T14:16:38.350Z,36.02
2018-06-16T14:19:11.165Z,35.74
2018-06-16T14:21:43.468Z,34.89
2018-06-16T14:24:15.594Z,35.87
2018-06-16T14:26:47.684Z,35.52
2018-06-16T14:29:19.953Z,34.57
2018-06-16T14:31:52.079Z,33.72
2018-06-16T14:34:24.178Z,34.45
2018-06-16T14:36:56.780Z,34.31
2018-06-16T14:39:28.914Z,34.88
2018-06-16T14:42:01.175Z,34.93
2018-06-16T14:44:33.295Z,34.11
2018-06-16T14:47:05.496Z,34.49
2018-06-16T14:49:37.543Z,35.11
2018-06-16T14:52:09.658Z,34.51
2018-06-16T14:54:41.742Z,33.89
2018-06-16T14:57:14.941Z,34.54
2018-06-16T14:59:49.065Z,33.62
2018-06-16T15:02:21.156Z,32.29
2018-06-16T15:04:53.381Z,34.28
2018-06-16T15:07:25.419Z,33.09
2018-06-16T15:09:57.537Z,34.94
2018-06-16T15:12:29.791Z,35.44
2018-06-16T15:15:01.865Z,35.31
2018-06-16T15:17:33.944Z,36.13
2018-06-16T15:20:06.034Z,33.93
2018-06-16T15:22:38.148Z,32.31
2018-06-16T15:25:10.210Z,32.18
2018-06-16T15:27:42.293Z,32.30
2018-06-16T15:30:14.461Z,32.60
2018-06-16T15:32:46.519Z,30.89
2018-06-16T15:35:18.588Z,31.69
2018-06-16T15:37:50.676Z,31.85
2018-06-16T15:40:22.878Z,32.70
2018-06-16T15:42:54.955Z,31.71
2018-06-16T15:45:27.069Z,30.87
2018-06-16T15:47:59.429Z,32.21
2018-06-16T15:50:31.548Z,33.11
2018-06-16T15:53:03.780Z,32.84
2018-06-16T15:55:35.993Z,31.68
2018-06-16T15:58:08.246Z,33.70
2018-06-16T16:00:40.535Z,34.47
2018-06-16T16:03:12.852Z,33.41
2018-06-16T16:05:45.014Z,32.89
2018-06-16T16:08:17.103Z,31.94
2018-06-16T16:10:49.275Z,32.38
2018-06-16T16:13:21.522Z,33.16
2018-06-16T16:15:53.747Z,33.59
2018-06-16T16:18:26.956Z,32.08
2018-06-16T16:20:59.008Z,31.24
2018-06-16T16:23:31.258Z,32.05
2018-06-16T16:26:03.506Z,31.15
2018-06-16T16:28:35.595Z,32.26
2018-06-16T16:31:07.680Z,32.42
2018-06-16T16:33:39.782Z,33.01
2018-06-16T16:36:11.941Z,32.89
2018-06-16T16:38:44.112Z,31.21
2018-06-16T16:41:16.284Z,32.30
2018-06-16T16:43:48.438Z,30.69
2018-06-16T16:46:20.582Z,30.66
2018-06-16T16:48:52.719Z,31.24
2018-06-16T16:51:24.824Z,30.84
2018-06-16T16:53:56.965Z,30.80
2018-06-16T16:56:29.061Z,30.37
2018-06-16T16:59:01.175Z,30.14
2018-06-16T17:01:33.342Z,30.28
2018-06-16T17:04:05.430Z,30.04
2018-06-16T17:06:37.553Z,29.81
2018-06-16T17:09:10.754Z,29.53
2018-06-16T17:11:42.901Z,28.86
2018-06-16T17:14:15.017Z,28.75
2018-06-16T17:16:47.108Z,29.07
2018-06-16T17:19:19.218Z,28.99
2018-06-16T17:21:51.295Z,28.37
2018-06-16T17:24:23.548Z,28.12
2018-06-16T17:26:55.749Z,27.53
2018-06-16T17:29:27.849Z,27.52
2018-06-16T17:32:00.166Z,27.08
2018-06-16T17:34:32.280Z,27.23
2018-06-16T17:37:05.226Z,27.20
2018-06-16T17:39:37.320Z,27.03
2018-06-16T17:42:09.479Z,27.03
2018-06-16T17:44:42.857Z,26.86
2018-06-16T17:47:15.133Z,26.69
2018-06-16T17:49:47.470Z,26.47
2018-06-16T17:52:19.616Z,26.43
2018-06-16T17:54:51.748Z,26.01
2018-06-16T17:57:23.904Z,26.01
2018-06-16T17:59:57.519Z,25.89
2018-06-16T18:02:30.721Z,25.74
2018-06-16T18:05:02.869Z,25.54
2018-06-16T18:07:35.003Z,25.47
2018-06-16T18:10:07.168Z,25.30
2018-06-16T18:12:39.442Z,25.04
2018-06-16T18:15:11.733Z,24.90
2018-06-16T18:17:43.935Z,24.75
2018-06-16T18:20:18.573Z,24.59
2018-06-16T18:22:50.993Z,24.50
2018-06-16T18:25:23.334Z,24.36
2018-06-16T18:27:55.471Z,24.21
2018-06-16T18:30:27.710Z,24.04
2018-06-16T18:32:59.846Z,23.84
2018-06-16T18:35:31.990Z,23.66
2018-06-16T18:38:04.184Z,23.53
2018-06-16T18:40:36.328Z,23.38
2018-06-16T18:43:08.749Z,23.30
2018-06-16T18:45:40.845Z,23.19
2018-06-16T18:48:12.976Z,23.11
2018-06-16T18:50:45.173Z,23.05
2018-06-16T18:53:17.407Z,23.05
2018-06-16T18:55:49.534Z,22.98
2018-06-16T18:58:22.116Z,22.92
2018-06-16T19:00:54.320Z,22.82
2018-06-16T19:03:26.457Z,22.71
2018-06-16T19:06:02.421Z,22.58
2018-06-16T19:08:37.921Z,22.46
2018-06-16T19:11:13.666Z,22.28
2018-06-16T19:13:47.888Z,22.08
2018-06-16T19:16:20.061Z,22.02
2018-06-16T19:18:52.456Z,21.98
2018-06-16T19:21:24.540Z,21.85
2018-06-16T19:23:56.679Z,21.72
2018-06-16T19:26:28.842Z,21.59
2018-06-16T19:29:01.100Z,21.50
2018-06-16T19:31:33.504Z,21.31
2018-06-16T19:34:05.652Z,21.06
2018-06-16T19:36:37.789Z,20.77
2018-06-16T19:39:11.157Z,20.58
2018-06-16T19:41:45.294Z,20.43
2018-06-16T19:44:17.479Z,20.47
2018-06-16T19:46:49.581Z,20.55
2018-06-16T19:49:21.739Z,20.62
2018-06-16T19:51:54.948Z,20.45
2018-06-16T19:54:27.027Z,20.21
2018-06-16T19:56:59.467Z,20.09
2018-06-16T19:59:32.780Z,19.88
2018-06-16T20:02:05.621Z,19.86
2018-06-16T20:04:37.750Z,19.87
2018-06-16T20:07:09.869Z,19.72
2018-06-16T20:09:44.084Z,19.46
2018-06-16T20:12:16.181Z,19.39
2018-06-16T20:14:48.361Z,19.21
2018-06-16T20:17:20.542Z,19.16
2018-06-16T20:19:52.710Z,19.11
2018-06-16T20:22:25.480Z,19.05
2018-06-16T20:24:57.673Z,18.90
2018-06-16T20:27:29.804Z,18.84
2018-06-16T20:30:02.327Z,18.80
2018-06-16T20:32:34.517Z,18.72
2018-06-16T20:35:06.876Z,18.70
2018-06-16T20:37:39.026Z,18.79
2018-06-16T20:40:11.194Z,19.03
2018-06-16T20:42:43.385Z,18.98
2018-06-16T20:45:15.566Z,18.89
2018-06-16T20:47:47.807Z,18.79
2018-06-16T20:50:19.946Z,18.62
2018-06-16T20:52:52.210Z,18.49
2018-06-16T20:55:24.376Z,18.43
2018-06-16T20:57:56.563Z,18.24
2018-06-16T21:00:28.703Z,18.16
2018-06-16T21:03:00.820Z,17.98
2018-06-16T21:05:32.933Z,17.92
2018-06-16T21:08:05.109Z,17.86
2018-06-16T21:10:37.279Z,17.79
2018-06-16T21:13:10.132Z,17.87
2018-06-16T21:15:43.055Z,17.72
2018-06-16T21:18:15.245Z,17.67
2018-06-16T21:20:47.336Z,17.67
2018-06-16T21:23:19.535Z,17.52
2018-06-16T21:25:51.704Z,17.65
2018-06-16T21:28:24.028Z,17.66
2018-06-16T21:30:56.205Z,17.62
2018-06-16T21:33:28.340Z,17.64
2018-06-16T21:36:00.510Z,17.56
2018-06-16T21:38:32.681Z,17.65
2018-06-16T21:41:04.821Z,17.58
2018-06-16T21:43:36.911Z,17.48
2018-06-16T21:46:09.117Z,17.36
2018-06-16T21:48:41.251Z,17.28
2018-06-16T21:51:13.319Z,17.33
2018-06-16T21:53:45.474Z,17.26
2018-06-16T21:56:17.617Z,17.24
2018-06-16T21:58:49.859Z,17.17
2018-06-16T22:01:22.715Z,17.15
2018-06-16T22:03:54.902Z,17.18
2018-06-16T22:06:27.053Z,17.05
2018-06-16T22:08:59.844Z,17.06
2018-06-16T22:11:31.968Z,17.01
2018-06-16T22:14:04.060Z,16.99
2018-06-16T22:16:36.153Z,16.98
2018-06-16T22:19:08.268Z,16.74
2018-06-16T22:21:40.463Z,16.91
2018-06-16T22:24:12.631Z,16.90
2018-06-16T22:26:44.821Z,16.80
2018-06-16T22:29:16.896Z,16.60
2018-06-16T22:31:49.103Z,16.63
2018-06-16T22:34:21.241Z,16.51
2018-06-16T22:36:53.403Z,16.60
2018-06-16T22:39:25.503Z,16.50
2018-06-16T22:41:57.645Z,16.38
2018-06-16T22:44:29.765Z,16.38
2018-06-16T22:47:01.916Z,16.37
2018-06-16T22:49:34.042Z,16.42
2018-06-16T22:52:06.291Z,16.42
2018-06-16T22:54:38.400Z,16.39
2018-06-16T22:57:10.709Z,16.23
2018-06-16T22:59:43.914Z,16.24
2018-06-16T23:02:16.038Z,16.19
2018-06-16T23:04:48.166Z,16.16
2018-06-16T23:07:20.406Z,16.00
2018-06-16T23:09:52.517Z,15.99
2018-06-16T23:12:24.695Z,16.05
2018-06-16T23:14:56.828Z,15.89
2018-06-16T23:17:28.941Z,15.74
2018-06-16T23:20:01.008Z,15.63
2018-06-16T23:22:33.197Z,15.63
2018-06-16T23:25:05.347Z,15.58
2018-06-16T23:27:37.428Z,15.56
2018-06-16T23:30:09.515Z,15.42
2018-06-16T23:32:41.597Z,15.36
2018-06-16T23:35:13.736Z,15.24
2018-06-16T23:37:45.859Z,15.19
2018-06-16T23:40:18.017Z,15.07
2018-06-16T23:42:50.107Z,15.06
2018-06-16T23:45:22.168Z,14.90
2018-06-16T23:47:54.211Z,14.77
2018-06-16T23:50:26.351Z,14.72
2018-06-16T23:52:58.459Z,14.66
2018-06-16T23:55:30.525Z,14.67
2018-06-16T23:58:02.753Z,14.79
